Upstream stations:
Downstream station:
SHEF ID: QUAO2 Spring River near Quapaw, OK
STATION TYPE:
Regulating: Stage = 20.00, Flow = 33676
PRECIP STAGE STAGE(2) RIV-FLOW BAT-LOAD
in ft ft cfs volt
Ccp-Rev Ccp-Rev Ccp-Rev Ccp-Rev Ccp-Rev
(US/Central)
04/06 00:00 0.00 7.90 8.05 2437 12.14
04/06 01:00 0.00 7.85 8.06 2364 12.12
04/06 02:00 0.00 7.88 8.13 2408 12.11
04/06 03:00 0.00 7.82 8.07 2320 12.11
04/06 04:00 0.00 7.83 8.10 2334 12.08
04/06 05:00 0.00 7.84 8.10 2349 12.17
04/06 06:00 0.00 7.82 8.09 2320 12.21
04/06 07:00 0.00 7.82 8.08 2320 12.17
04/06 08:00 0.00 7.82 8.07 2320 12.16
04/06 09:00 0.00 7.81 8.06 2306 12.44
04/06 10:00 0.00 7.78 8.05 2263 13.01
04/06 11:00 0.00 7.80 8.04 2291 13.31
04/06 12:00 0.00 7.76 8.02 2234 13.40
04/06 13:00 0.00 7.76 8.00 2234 12.93
04/06 14:00 0.00 7.72 7.97 2178 12.79
04/06 15:00 0.00 7.75 7.99 2220 12.80
04/06 16:00 0.00 7.73 7.96 2192 12.84
04/06 17:00 0.00 7.73 7.97 2192 12.66
04/06 18:00 0.00 7.71 7.98 2164 12.71
04/06 19:00 0.00 7.71 7.98 2164 12.58
04/06 20:00 0.00 7.70 7.97 2150 12.37
04/06 21:00 0.00 7.66 7.96 2095 12.30
04/06 22:00 0.00 7.66 7.90 2095 12.28
04/06 23:00 0.00 7.65 7.84 2082 12.26